Time;durP1;ratioP1;P1;durP2;ratioP2;P2;SDS_P1;SDS_P2;PMS_P1;PMS_P2;Temp;Humidity;BMP_temperature;BMP_pressure;BME280_temperature;BME280_humidity;BME280_pressure;Samples;Min_cycle;Max_cycle;Signal;HPM_P1;HPM_P2
2023/08/05 00:00:22;;;;;;;15.10;10.57;;;640.40;2432.00;;;;;;5089416;28;20028;-66
2023/08/05 00:02:48;;;;;;;11.30;10.20;;;640.40;2432.00;;;;;;5089526;28;20470;-68
2023/08/05 00:05:14;;;;;;;11.30;10.18;;;640.40;2432.00;;;;;;5089106;28;20123;-67
2023/08/05 00:07:39;;;;;;;13.23;9.88;;;640.30;2432.00;;;;;;5089735;28;20016;-67
2023/08/05 00:10:06;;;;;;;11.93;10.38;;;640.50;2432.00;;;;;;5089429;28;20514;-67
2023/08/05 00:12:31;;;;;;;12.25;11.00;;;640.50;2432.00;;;;;;5089639;28;20065;-68
2023/08/05 00:14:57;;;;;;;11.60;10.48;;;640.50;2432.00;;;;;;5089536;28;20069;-67
2023/08/05 00:17:23;;;;;;;11.05;9.95;;;640.40;2432.00;;;;;;5089332;28;20024;-69
2023/08/05 00:19:50;;;;;;;12.27;11.07;;;640.40;2432.00;;;;;;5089438;28;20377;-67
2023/08/05 00:22:16;;;;;;;13.68;10.85;;;640.50;2432.00;;;;;;5088720;28;20107;-67
2023/08/05 00:24:41;;;;;;;12.90;11.60;;;640.40;2432.00;;;;;;5089342;28;20123;-68
2023/08/05 00:27:07;;;;;;;11.45;10.30;;;640.40;2432.00;;;;;;5089280;28;20060;-68
2023/08/05 00:29:33;;;;;;;11.10;10.00;;;640.50;2432.00;;;;;;5089044;28;20056;-69
2023/08/05 00:31:58;;;;;;;13.68;12.05;;;640.60;2432.00;;;;;;5089296;28;20016;-68
2023/08/05 00:34:24;;;;;;;12.85;11.48;;;640.60;2432.00;;;;;;5089246;28;20063;-68
2023/08/05 00:36:50;;;;;;;16.98;11.18;;;640.60;2432.00;;;;;;5089261;28;20222;-67
2023/08/05 00:39:15;;;;;;;16.73;11.52;;;640.60;2432.00;;;;;;5088979;28;20028;-68
2023/08/05 00:41:41;;;;;;;12.50;11.20;;;640.60;2432.00;;;;;;5088985;28;20490;-67
2023/08/05 00:44:07;;;;;;;12.48;11.02;;;640.60;2432.00;;;;;;5088992;28;20024;-66
2023/08/05 00:46:32;;;;;;;11.77;10.75;;;640.60;2432.00;;;;;;5089139;28;20032;-67
2023/08/05 00:48:58;;;;;;;13.73;11.07;;;640.60;2432.00;;;;;;5089096;28;20024;-68
2023/08/05 00:51:25;;;;;;;12.05;10.85;;;640.60;2432.00;;;;;;5088925;28;20470;-67
2023/08/05 00:53:51;;;;;;;17.73;12.80;;;640.50;2432.00;;;;;;5089063;28;20036;-67
2023/08/05 00:56:17;;;;;;;13.07;10.82;;;640.40;2432.00;;;;;;5088869;28;20069;-67
2023/08/05 00:58:44;;;;;;;13.52;12.15;;;640.40;2432.00;;;;;;5093273;28;20568;-67
2023/08/05 01:01:10;;;;;;;13.13;11.40;;;640.30;2432.00;;;;;;5092957;28;20024;-67
2023/08/05 01:03:36;;;;;;;13.48;10.65;;;640.30;2432.00;;;;;;5092862;28;20504;-67
2023/08/05 01:06:04;;;;;;;13.70;12.30;;;640.20;2432.00;;;;;;5093118;28;20040;-67
2023/08/05 01:08:31;;;;;;;13.68;12.07;;;640.10;2432.00;;;;;;5093040;28;20024;-67
2023/08/05 01:10:56;;;;;;;12.32;11.02;;;640.10;2432.00;;;;;;5092777;28;20032;-68
2023/08/05 01:13:22;;;;;;;14.68;11.95;;;640.10;2432.00;;;;;;5092881;28;20457;-67
2023/08/05 01:15:48;;;;;;;13.10;11.75;;;640.10;2432.00;;;;;;5092952;28;20067;-68
2023/08/05 01:18:15;;;;;;;14.05;11.77;;;640.00;2432.00;;;;;;5092480;28;20054;-68
2023/08/05 01:20:52;;;;;;;14.48;12.70;;;640.00;2432.00;;;;;;5092706;28;20390;-68
2023/08/05 01:23:39;;;;;;;13.40;12.10;;;615.30;2432.00;;;;;;5092507;28;20035;-67
2023/08/05 01:26:05;;;;;;;15.02;12.57;;;640.00;2432.00;;;;;;5084444;28;20043;-67
2023/08/05 01:28:34;;;;;;;13.40;12.10;;;640.00;2432.00;;;;;;5092437;28;20427;-67
2023/08/05 01:31:01;;;;;;;14.95;12.88;;;615.30;2432.00;;;;;;5092651;28;20586;-67
2023/08/05 01:33:28;;;;;;;13.02;11.82;;;615.30;2432.00;;;;;;5092750;28;20430;-68
2023/08/05 01:35:53;;;;;;;12.70;11.48;;;615.20;2432.00;;;;;;5092405;28;20474;-68
2023/08/05 01:38:19;;;;;;;13.43;12.13;;;615.30;2432.00;;;;;;5092301;28;20032;-68
2023/08/05 01:40:45;;;;;;;16.40;13.05;;;615.20;2432.00;;;;;;5091958;28;20691;-67
2023/08/05 01:43:11;;;;;;;13.73;12.48;;;615.20;2432.00;;;;;;5092417;28;20024;-67
2023/08/05 01:45:37;;;;;;;14.55;13.07;;;615.10;2432.00;;;;;;5092047;28;20036;-67
2023/08/05 01:48:03;;;;;;;14.52;13.13;;;615.10;2432.00;;;;;;5092270;28;20148;-68
2023/08/05 01:50:29;;;;;;;16.23;12.23;;;615.00;2432.00;;;;;;5092192;28;20073;-67
2023/08/05 01:52:55;;;;;;;14.57;12.88;;;614.90;2432.00;;;;;;5092113;28;20028;-67
2023/08/05 01:55:21;;;;;;;17.50;14.60;;;614.80;2432.00;;;;;;5092013;28;20023;-67
2023/08/05 01:57:46;;;;;;;16.35;14.65;;;614.90;2432.00;;;;;;5091652;28;20069;-67
2023/08/05 02:00:12;;;;;;;19.02;17.10;;;614.90;2432.00;;;;;;5091883;28;20073;-68
2023/08/05 02:02:38;;;;;;;24.10;21.52;;;614.80;2432.00;;;;;;5091828;28;20435;-67
2023/08/05 02:05:04;;;;;;;27.40;24.00;;;614.80;2432.00;;;;;;5091428;28;20070;-67
2023/08/05 02:07:30;;;;;;;27.52;24.60;;;614.80;2432.00;;;;;;5091518;28;20067;-67
2023/08/05 02:09:55;;;;;;;27.83;24.52;;;614.80;2432.00;;;;;;5091735;28;20048;-68
2023/08/05 02:12:21;;;;;;;28.15;25.33;;;614.70;2432.00;;;;;;5091683;28;20066;-67
2023/08/05 02:14:47;;;;;;;26.85;24.10;;;614.80;2432.00;;;;;;5091419;28;20028;-68
2023/08/05 02:17:12;;;;;;;29.73;25.23;;;614.70;2432.00;;;;;;5091267;28;20024;-67
2023/08/05 02:19:38;;;;;;;23.65;21.20;;;614.80;2432.00;;;;;;5091673;28;20108;-68
2023/08/05 02:22:04;;;;;;;25.83;22.98;;;614.90;2432.00;;;;;;5091197;28;20362;-68
2023/08/05 02:24:29;;;;;;;28.00;25.10;;;614.90;2432.00;;;;;;5091528;28;20058;-68
2023/08/05 02:26:55;;;;;;;27.45;24.35;;;614.90;2432.00;;;;;;5091261;28;20026;-68
2023/08/05 02:29:21;;;;;;;29.77;26.52;;;614.90;2432.00;;;;;;5091280;28;20070;-67
2023/08/05 02:31:46;;;;;;;29.13;25.23;;;614.90;2432.00;;;;;;5091169;28;20430;-67
2023/08/05 02:34:12;;;;;;;27.60;24.85;;;614.90;2432.00;;;;;;5091045;28;20028;-68
2023/08/05 02:36:38;;;;;;;28.67;25.67;;;614.90;2432.00;;;;;;5091123;28;20150;-68
2023/08/05 02:39:03;;;;;;;31.05;27.08;;;614.80;2432.00;;;;;;5090897;28;20074;-68
2023/08/05 02:41:29;;;;;;;29.15;26.30;;;614.80;2432.00;;;;;;5091071;28;20040;-68
2023/08/05 02:43:55;;;;;;;29.55;26.13;;;614.80;2432.00;;;;;;5090898;28;20060;-68
2023/08/05 02:46:20;;;;;;;28.92;25.88;;;614.80;2432.00;;;;;;5090948;28;20059;-68
2023/08/05 02:48:46;;;;;;;29.55;26.45;;;614.80;2432.00;;;;;;5090845;28;20112;-69
2023/08/05 02:51:12;;;;;;;32.38;26.75;;;614.80;2432.00;;;;;;5091015;28;20027;-68
2023/08/05 02:53:37;;;;;;;31.38;28.00;;;614.70;2432.00;;;;;;5091079;28;20032;-68
2023/08/05 02:56:03;;;;;;;29.90;26.80;;;614.80;2432.00;;;;;;5090975;28;20089;-69
2023/08/05 02:58:29;;;;;;;32.10;28.65;;;614.80;2432.00;;;;;;5091079;28;20059;-68
2023/08/05 03:01:03;;;;;;;33.33;28.40;;;614.70;2432.00;;;;;;5090680;28;20031;-68
2023/08/05 03:03:29;;;;;;;31.17;27.88;;;614.80;2432.00;;;;;;5090743;28;20064;-68
2023/08/05 03:05:54;;;;;;;35.33;31.50;;;614.70;2432.00;;;;;;5090665;28;20063;-68
2023/08/05 03:08:20;;;;;;;33.47;29.45;;;614.70;2432.00;;;;;;5090856;28;20024;-67
2023/08/05 03:10:57;;;;;;;34.30;29.95;;;614.80;2432.00;;;;;;5090481;28;20668;-68
2023/08/05 03:13:23;;;;;;;36.75;30.98;;;614.70;2432.00;;;;;;5090717;28;20028;-68
2023/08/05 03:15:49;;;;;;;33.50;30.00;;;614.80;2432.00;;;;;;5090494;28;20350;-67
2023/08/05 03:18:14;;;;;;;34.20;30.58;;;614.80;2432.00;;;;;;5090501;28;20024;-68
2023/08/05 03:20:40;;;;;;;32.05;28.63;;;614.80;2432.00;;;;;;5089803;28;20035;-68
2023/08/05 03:23:06;;;;;;;32.65;29.23;;;614.80;2432.00;;;;;;5089896;28;20103;-68
2023/08/05 03:25:31;;;;;;;33.45;29.80;;;614.90;2432.00;;;;;;5090130;28;20036;-67
2023/08/05 03:27:57;;;;;;;33.90;30.30;;;614.90;2432.00;;;;;;5090224;28;20035;-68
2023/08/05 03:30:23;;;;;;;38.13;33.70;;;614.80;2432.00;;;;;;5090062;28;20381;-69
2023/08/05 03:32:49;;;;;;;34.88;31.30;;;614.90;2432.00;;;;;;5090118;28;20020;-68
2023/08/05 03:35:15;;;;;;;37.08;32.00;;;614.90;2432.00;;;;;;5089729;28;20020;-68
2023/08/05 03:37:40;;;;;;;38.50;32.13;;;614.80;2432.00;;;;;;5089979;28;20475;-68
2023/08/05 03:40:07;;;;;;;32.97;29.38;;;614.80;2432.00;;;;;;5089668;28;20031;-68
2023/08/05 03:42:32;;;;;;;34.65;30.90;;;614.80;2432.00;;;;;;5090083;28;20477;-68
2023/08/05 03:44:58;;;;;;;36.35;32.65;;;614.90;2432.00;;;;;;5089885;28;20111;-68
2023/08/05 03:47:24;;;;;;;43.20;31.50;;;614.80;2432.00;;;;;;5089513;28;20016;-67
2023/08/05 03:49:50;;;;;;;35.92;31.27;;;614.80;2432.00;;;;;;5090101;28;20377;-67
2023/08/05 03:52:16;;;;;;;37.33;33.38;;;614.60;2432.00;;;;;;5089452;28;20032;-67
2023/08/05 03:54:41;;;;;;;35.05;31.23;;;614.60;2432.00;;;;;;5089872;28;20028;-68
2023/08/05 03:57:08;;;;;;;37.00;32.58;;;614.50;2432.00;;;;;;5089653;28;20123;-69
2023/08/05 03:59:37;;;;;;;35.20;30.17;;;614.50;2432.00;;;;;;5089821;28;20454;-68
2023/08/05 04:02:03;;;;;;;37.03;33.05;;;614.70;2432.00;;;;;;5089435;28;20020;-68
2023/08/05 04:04:29;;;;;;;35.20;31.45;;;614.50;2432.00;;;;;;5089866;28;20024;-68
2023/08/05 04:06:54;;;;;;;39.55;32.78;;;614.70;2432.00;;;;;;5089504;28;20382;-67
2023/08/05 04:09:21;;;;;;;37.72;32.97;;;614.80;2432.00;;;;;;5089795;28;20039;-68
2023/08/05 04:11:49;;;;;;;40.75;33.97;;;614.80;2432.00;;;;;;5089479;28;20035;-68
2023/08/05 04:14:17;;;;;;;39.63;33.33;;;614.80;2432.00;;;;;;5089136;28;20030;-68
2023/08/05 04:16:43;;;;;;;42.47;35.20;;;614.80;2432.00;;;;;;5089722;28;20063;-68
2023/08/05 04:19:08;;;;;;;39.83;34.35;;;614.60;2432.00;;;;;;5089273;28;20062;-68
2023/08/05 04:21:40;;;;;;;41.05;35.10;;;614.70;2432.00;;;;;;5089184;28;20020;-68
2023/08/05 04:24:09;;;;;;;38.17;32.80;;;614.80;2432.00;;;;;;5089200;28;20024;-68
2023/08/05 04:26:35;;;;;;;35.47;31.15;;;614.70;2432.00;;;;;;5089490;28;20552;-68
2023/08/05 04:29:03;;;;;;;37.50;32.90;;;614.70;2432.00;;;;;;5089417;28;20031;-68
2023/08/05 04:31:29;;;;;;;42.30;34.47;;;614.80;2432.00;;;;;;5088225;28;20431;-67
2023/08/05 04:33:55;;;;;;;39.97;33.83;;;614.80;2432.00;;;;;;5089359;28;20024;-67
2023/08/05 04:36:20;;;;;;;38.03;33.88;;;614.90;2432.00;;;;;;5089404;28;20028;-68
2023/08/05 04:38:46;;;;;;;39.20;34.47;;;614.90;2432.00;;;;;;5089142;28;20145;-67
2023/08/05 04:41:11;;;;;;;39.13;34.13;;;615.00;2432.00;;;;;;5089114;28;20044;-68
2023/08/05 04:43:37;;;;;;;40.42;34.13;;;615.00;2432.00;;;;;;5088993;28;20020;-68
2023/08/05 04:46:03;;;;;;;40.05;33.05;;;615.10;2432.00;;;;;;5089084;28;20097;-67
2023/08/05 04:48:28;;;;;;;38.78;34.63;;;615.10;2432.00;;;;;;5089325;28;20024;-68
2023/08/05 04:50:57;;;;;;;44.50;33.17;;;615.30;2432.00;;;;;;5088680;28;20076;-68
2023/08/05 04:53:23;;;;;;;36.75;32.83;;;640.10;2432.00;;;;;;5089169;28;20351;-68
2023/08/05 04:55:48;;;;;;;37.72;33.58;;;640.00;2432.00;;;;;;5089064;28;20024;-68
2023/08/05 04:58:14;;;;;;;35.35;31.55;;;640.10;2432.00;;;;;;5088772;28;20049;-67
2023/08/05 05:00:40;;;;;;;34.58;30.17;;;640.40;2432.00;;;;;;5089150;28;20032;-68
2023/08/05 05:03:07;;;;;;;36.13;31.92;;;640.80;2432.00;;;;;;5088862;28;20024;-67
2023/08/05 05:05:34;;;;;;;36.58;32.38;;;665.90;2432.00;;;;;;5088850;28;20561;-67
2023/08/05 05:08:00;;;;;;;36.63;30.58;;;666.20;2432.00;;;;;;5089085;28;20027;-67
2023/08/05 05:10:26;;;;;;;35.10;31.15;;;666.30;2432.00;;;;;;5088762;28;20372;-68
2023/08/05 05:12:51;;;;;;;34.78;31.08;;;666.30;2432.00;;;;;;5089171;28;20043;-68
2023/08/05 05:15:21;;;;;;;37.03;33.20;;;666.10;2432.00;;;;;;5088903;28;20047;-68
2023/08/05 05:17:50;;;;;;;37.40;33.42;;;665.70;2432.00;;;;;;5088976;28;20028;-68
2023/08/05 05:20:16;;;;;;;34.42;30.58;;;666.00;2432.00;;;;;;5088641;28;20032;-68
2023/08/05 05:22:42;;;;;;;36.60;32.65;;;665.90;2432.00;;;;;;5088699;28;20032;-68
2023/08/05 05:25:17;;;;;;;36.42;31.15;;;665.60;2432.00;;;;;;5089615;28;20123;-69
2023/08/05 05:27:43;;;;;;;36.67;32.72;;;640.70;2432.00;;;;;;5088846;28;20584;-68
2023/08/05 05:30:09;;;;;;;39.95;35.92;;;640.60;2432.00;;;;;;5089567;28;20110;-67
2023/08/05 05:32:34;;;;;;;41.67;36.97;;;640.60;2432.00;;;;;;5088763;28;20031;-68
2023/08/05 05:35:00;;;;;;;39.78;35.58;;;640.60;2432.00;;;;;;5089176;28;20028;-68
2023/08/05 05:37:26;;;;;;;41.50;36.40;;;640.60;2432.00;;;;;;5088541;28;20050;-66
2023/08/05 05:39:52;;;;;;;39.53;35.08;;;640.70;2432.00;;;;;;5088431;28;20070;-68
2023/08/05 05:42:17;;;;;;;41.13;34.70;;;640.60;2432.00;;;;;;5088797;28;20055;-66
2023/08/05 05:44:50;;;;;;;43.65;38.53;;;640.70;2432.00;;;;;;5092510;28;20039;-69
2023/08/05 05:47:16;;;;;;;44.67;39.88;;;640.60;2432.00;;;;;;5091988;28;20024;-66
2023/08/05 05:49:42;;;;;;;46.60;40.75;;;640.60;2432.00;;;;;;5092488;28;20076;-67
2023/08/05 05:52:08;;;;;;;49.72;43.83;;;640.20;2432.00;;;;;;5092259;28;20450;-68
2023/08/05 05:54:35;;;;;;;48.88;43.90;;;640.20;2432.00;;;;;;5092049;28;20035;-68
2023/08/05 05:57:01;;;;;;;46.60;41.60;;;640.40;2432.00;;;;;;5096174;28;20065;-69
2023/08/05 05:59:27;;;;;;;49.47;44.10;;;640.40;2432.00;;;;;;5095104;28;20424;-68
2023/08/05 06:01:52;;;;;;;47.22;42.40;;;640.50;2432.00;;;;;;5091518;28;20047;-68
2023/08/05 06:04:18;;;;;;;50.95;45.53;;;640.20;2432.00;;;;;;5091748;28;20020;-68
2023/08/05 06:06:44;;;;;;;52.65;43.10;;;640.50;2432.00;;;;;;5091598;28;20359;-68
2023/08/05 06:09:10;;;;;;;44.03;39.22;;;640.50;2432.00;;;;;;5091887;28;20028;-69
2023/08/05 06:11:35;;;;;;;44.05;39.08;;;640.50;2432.00;;;;;;5091712;28;20035;-68
2023/08/05 06:14:01;;;;;;;42.95;37.75;;;640.50;2432.00;;;;;;5091877;28;20024;-68
2023/08/05 06:16:27;;;;;;;43.08;38.60;;;640.70;2432.00;;;;;;5091826;28;20016;-67
2023/08/05 06:18:52;;;;;;;41.60;37.10;;;640.80;2432.00;;;;;;5091586;28;20024;-68
2023/08/05 06:21:18;;;;;;;44.92;40.47;;;665.60;2432.00;;;;;;5091526;28;20058;-69
2023/08/05 06:23:44;;;;;;;46.75;41.95;;;666.10;2432.00;;;;;;5091477;28;20032;-67
2023/08/05 06:26:09;;;;;;;48.75;43.85;;;666.10;2432.00;;;;;;5091459;28;20123;-68
2023/08/05 06:28:35;;;;;;;53.33;44.05;;;666.20;2432.00;;;;;;5091458;28;20017;-68
2023/08/05 06:31:00;;;;;;;49.97;44.78;;;666.50;2432.00;;;;;;5091550;28;20439;-68
2023/08/05 06:33:26;;;;;;;49.17;43.65;;;691.30;2432.00;;;;;;5091410;28;20024;-68
2023/08/05 06:35:52;;;;;;;49.80;43.97;;;717.00;2432.00;;;;;;5091819;28;20032;-68
2023/08/05 06:38:17;;;;;;;53.08;47.67;;;742.50;2432.00;;;;;;5091300;28;20434;-67
2023/08/05 06:40:45;;;;;;;53.25;47.65;;;742.40;2432.00;;;;;;5091011;28;20146;-69
2023/08/05 06:43:10;;;;;;;52.55;47.28;;;717.70;2432.00;;;;;;5091196;28;20126;-69
2023/08/05 06:45:36;;;;;;;54.30;48.17;;;717.30;2432.00;;;;;;5090936;28;20160;-68
2023/08/05 06:48:02;;;;;;;49.00;43.75;;;717.00;2432.00;;;;;;5091437;28;20020;-68
2023/08/05 06:50:27;;;;;;;49.85;43.28;;;716.80;2432.00;;;;;;5090800;28;20081;-68
2023/08/05 06:52:53;;;;;;;50.80;45.40;;;717.00;2432.00;;;;;;5090943;28;20027;-69
2023/08/05 06:55:19;;;;;;;50.92;45.60;;;692.10;2432.00;;;;;;5089889;28;20050;-68
2023/08/05 06:57:48;;;;;;;49.03;43.58;;;717.30;2432.00;;;;;;5089925;28;20028;-67
2023/08/05 07:00:14;;;;;;;48.85;43.83;;;742.50;2432.00;;;;;;5090654;28;20051;-68
2023/08/05 07:02:40;;;;;;;42.75;38.22;;;742.60;2432.00;;;;;;5090688;28;20039;-68
2023/08/05 07:05:06;;;;;;;42.22;38.00;;;742.40;2432.00;;;;;;5090206;28;20032;-68
2023/08/05 07:07:32;;;;;;;40.65;36.53;;;743.10;2432.00;;;;;;5090461;28;20391;-67
2023/08/05 07:10:03;;;;;;;44.25;39.35;;;794.20;2432.00;;;;;;5090933;28;20028;-67
2023/08/05 07:12:29;;;;;;;44.83;40.42;;;768.60;2432.00;;;;;;5090943;28;20096;-68
2023/08/05 07:14:54;;;;;;;45.42;40.75;;;768.30;2432.00;;;;;;5090522;28;20462;-68
2023/08/05 07:17:20;;;;;;;42.10;38.00;;;742.80;2432.00;;;;;;5090513;28;20106;-68
2023/08/05 07:19:46;;;;;;;41.53;37.38;;;743.10;2432.00;;;;;;5090847;28;20454;-68
2023/08/05 07:22:12;;;;;;;41.42;37.35;;;845.00;2304.00;;;;;;5090581;28;20028;-68
2023/08/05 07:24:38;;;;;;;43.35;39.05;;;794.30;2355.20;;;;;;5090002;28;20081;-69
2023/08/05 07:27:04;;;;;;;43.55;39.55;;;768.60;2432.00;;;;;;5090064;28;20032;-69
2023/08/05 07:29:30;;;;;;;48.50;43.75;;;768.10;2432.00;;;;;;5090615;28;20652;-68
2023/08/05 07:31:55;;;;;;;44.30;39.90;;;768.40;2432.00;;;;;;5090030;28;20062;-68
2023/08/05 07:34:22;;;;;;;43.47;39.30;;;768.50;2432.00;;;;;;5090052;28;20394;-67
2023/08/05 07:36:48;;;;;;;42.88;38.58;;;768.60;2432.00;;;;;;5090310;28;20028;-68
2023/08/05 07:39:14;;;;;;;43.42;38.85;;;743.30;2432.00;;;;;;5090023;28;20385;-68
2023/08/05 07:41:40;;;;;;;42.47;38.20;;;742.90;2432.00;;;;;;5090072;28;20051;-66
2023/08/05 07:44:07;;;;;;;43.55;39.20;;;742.50;2432.00;;;;;;5090385;28;20016;-68
2023/08/05 07:46:36;;;;;;;40.78;36.45;;;743.10;2432.00;;;;;;5090630;28;20075;-69
2023/08/05 07:49:03;;;;;;;41.13;36.67;;;743.30;2432.00;;;;;;5090923;28;20045;-68
2023/08/05 07:51:30;;;;;;;39.67;35.67;;;793.60;2432.00;;;;;;5090158;28;20036;-67
2023/08/05 07:53:57;;;;;;;38.05;33.88;;;793.70;2432.00;;;;;;5089701;28;20031;-68
2023/08/05 07:56:23;;;;;;;39.60;35.40;;;794.30;2380.80;;;;;;5089764;28;20454;-67
2023/08/05 07:58:49;;;;;;;38.55;34.55;;;871.00;2124.80;;;;;;5089701;28;20039;-68
2023/08/05 08:01:22;;;;;;;38.13;34.42;;;973.50;1868.80;;;;;;5089493;28;20021;-69
2023/08/05 08:03:53;;;;;;;37.33;33.53;;;922.50;1868.80;;;;;;5089530;28;20032;-68
2023/08/05 08:06:20;;;;;;;37.47;33.85;;;896.00;1971.20;;;;;;5089411;28;20036;-68
2023/08/05 08:08:46;;;;;;;33.80;30.45;;;845.70;2073.60;;;;;;5088373;28;20052;-68
2023/08/05 08:11:13;;;;;;;37.65;34.10;;;870.70;2048.00;;;;;;5089704;28;20069;-67
2023/08/05 08:13:39;;;;;;;35.95;32.97;;;973.40;1792.00;;;;;;5089683;28;20052;-69
2023/08/05 08:16:06;;;;;;;38.22;35.13;;;1049.70;1638.40;;;;;;5089429;28;20103;-69
2023/08/05 08:18:31;;;;;;;35.55;32.38;;;1024.30;1587.20;;;;;;5089775;28;20031;-68
2023/08/05 08:20:57;;;;;;;37.95;34.72;;;1075.40;1510.40;;;;;;5089617;28;20041;-69
2023/08/05 08:23:23;;;;;;;34.92;31.90;;;1075.30;1510.40;;;;;;5089684;28;20492;-69
2023/08/05 08:25:49;;;;;;;38.17;34.53;;;1024.40;1561.60;;;;;;5089536;28;20089;-68
2023/08/05 08:28:14;;;;;;;36.65;33.58;;;973.50;1638.40;;;;;;5089516;28;20024;-69
2023/08/05 08:30:54;;;;;;;35.65;32.53;;;973.70;1612.80;;;;;;5089842;28;20485;-69
2023/08/05 08:33:20;;;;;;;41.25;37.45;;;896.80;1766.40;;;;;;5089632;28;20028;-68
2023/08/05 08:35:47;;;;;;;38.10;34.38;;;871.30;1843.20;;;;;;5089387;28;20024;-69
2023/08/05 08:38:13;;;;;;;38.30;34.65;;;871.10;1868.80;;;;;;5089572;28;20016;-68
2023/08/05 08:40:46;;;;;;;39.60;36.13;;;845.40;1971.20;;;;;;5089502;28;20173;-69
2023/08/05 08:43:13;;;;;;;37.97;34.45;;;845.40;1945.60;;;;;;5089411;28;20461;-68
2023/08/05 08:45:39;;;;;;;37.38;33.97;;;845.40;1945.60;;;;;;5089146;28;20040;-68
2023/08/05 08:48:09;;;;;;;38.50;34.97;;;845.50;1971.20;;;;;;5089344;28;20027;-67
2023/08/05 08:50:36;;;;;;;37.70;34.10;;;870.70;1945.60;;;;;;5089413;28;20162;-68
2023/08/05 08:53:01;;;;;;;38.40;34.80;;;845.10;1996.80;;;;;;5089461;28;20027;-69
2023/08/05 08:55:29;;;;;;;39.13;35.38;;;844.90;1996.80;;;;;;5089227;28;20036;-68
2023/08/05 08:57:55;;;;;;;37.85;34.28;;;844.80;2022.40;;;;;;5089333;28;20028;-68
2023/08/05 09:00:21;;;;;;;38.90;35.15;;;845.10;1996.80;;;;;;5089254;28;20523;-67
2023/08/05 09:02:48;;;;;;;40.42;36.53;;;819.70;2048.00;;;;;;5089109;28;20031;-68
2023/08/05 09:05:14;;;;;;;40.20;36.33;;;794.00;2124.80;;;;;;5088998;28;20032;-69
2023/08/05 09:07:40;;;;;;;43.28;38.90;;;768.90;2176.00;;;;;;5089283;28;20024;-68
2023/08/05 09:10:07;;;;;;;39.60;35.53;;;768.10;2227.20;;;;;;5089255;28;20032;-68
2023/08/05 09:12:34;;;;;;;39.30;35.55;;;768.50;2201.60;;;;;;5089343;28;20040;-68
2023/08/05 09:14:59;;;;;;;37.83;34.30;;;768.70;2201.60;;;;;;5089321;28;20020;-68
2023/08/05 09:17:26;;;;;;;38.72;34.97;;;768.90;2176.00;;;;;;5089513;28;20327;-68
2023/08/05 09:19:52;;;;;;;38.90;34.08;;;794.00;2176.00;;;;;;5093163;28;20016;-67
2023/08/05 09:22:18;;;;;;;38.50;34.67;;;793.90;2176.00;;;;;;5092852;28;20041;-68
2023/08/05 09:24:43;;;;;;;37.83;34.42;;;794.20;2150.40;;;;;;5092726;28;20043;-68
2023/08/05 09:27:09;;;;;;;39.60;35.78;;;793.70;2176.00;;;;;;5092868;28;20032;-68
2023/08/05 09:29:38;;;;;;;39.22;35.33;;;793.70;2201.60;;;;;;5092477;28;20051;-67
2023/08/05 09:32:04;;;;;;;38.25;34.42;;;794.50;2150.40;;;;;;5092787;28;20034;-68
2023/08/05 09:34:41;;;;;;;37.08;33.15;;;819.50;2073.60;;;;;;5092957;28;20020;-67
2023/08/05 09:37:06;;;;;;;39.78;34.20;;;819.70;2099.20;;;;;;5092458;28;20059;-68
2023/08/05 09:39:47;;;;;;;35.40;32.00;;;819.80;2099.20;;;;;;5092710;28;20055;-68
2023/08/05 09:42:21;;;;;;;35.30;32.17;;;819.80;2073.60;;;;;;5092278;28;20457;-68
2023/08/05 09:44:48;;;;;;;37.35;33.78;;;819.90;2124.80;;;;;;5092122;28;20454;-68
2023/08/05 09:47:21;;;;;;;37.53;34.05;;;820.10;2099.20;;;;;;5092279;28;20047;-69
2023/08/05 09:49:50;;;;;;;37.72;34.17;;;844.90;2099.20;;;;;;5092137;28;20517;-67
2023/08/05 09:52:17;;;;;;;38.25;34.63;;;844.90;2124.80;;;;;;5092688;28;20032;-68
2023/08/05 09:55:09;;;;;;;38.38;34.65;;;820.10;2073.60;;;;;;5092413;28;20021;-68
2023/08/05 09:57:36;;;;;;;37.88;34.25;;;819.70;2124.80;;;;;;5087099;28;20055;-68
2023/08/05 10:00:08;;;;;;;38.53;34.83;;;819.60;2150.40;;;;;;5092388;28;20016;-68
2023/08/05 10:02:34;;;;;;;37.03;33.53;;;819.60;2150.40;;;;;;5091848;28;20028;-68
2023/08/05 10:05:02;;;;;;;38.38;34.65;;;819.40;2176.00;;;;;;5092249;28;20238;-68
2023/08/05 10:07:28;;;;;;;38.38;34.38;;;819.40;2176.00;;;;;;5091867;28;20363;-67
2023/08/05 10:09:54;;;;;;;38.97;35.20;;;819.30;2176.00;;;;;;5091761;28;20028;-68
2023/08/05 10:12:28;;;;;;;37.17;33.47;;;794.50;2201.60;;;;;;5092191;28;20035;-68
2023/08/05 10:14:59;;;;;;;36.13;32.55;;;794.50;2201.60;;;;;;5091756;28;20047;-68
2023/08/05 10:17:26;;;;;;;37.95;33.85;;;794.40;2176.00;;;;;;5091731;28;20103;-68
2023/08/05 10:19:52;;;;;;;36.63;32.92;;;;;;;;;;5091962;28;20081;-68
2023/08/05 10:22:22;;;;;;;36.78;33.08;;;794.50;2176.00;;;;;;5091988;28;20078;-68
2023/08/05 10:24:52;;;;;;;36.65;33.00;;;793.90;2227.20;;;;;;5091794;28;20120;-68
2023/08/05 10:27:32;;;;;;;38.85;35.00;;;793.90;2252.80;;;;;;5091514;28;20028;-68
2023/08/05 10:30:03;;;;;;;37.80;33.60;;;794.00;2227.20;;;;;;5091109;28;20028;-66
2023/08/05 10:32:29;;;;;;;37.70;33.90;;;794.00;2278.40;;;;;;5091769;28;20150;-68
2023/08/05 10:35:23;;;;;;;37.00;33.38;;;768.90;2304.00;;;;;;5091537;28;20517;-66
2023/08/05 10:37:50;;;;;;;37.92;34.28;;;768.40;2355.20;;;;;;5090865;28;20032;-66
2023/08/05 10:40:38;;;;;;;38.95;35.00;;;768.40;2355.20;;;;;;5090870;28;20048;-68
2023/08/05 10:43:05;;;;;;;37.88;34.17;;;768.10;2406.40;;;;;;5089667;28;20031;-68
2023/08/05 10:45:33;;;;;;;38.65;34.80;;;743.00;2432.00;;;;;;5090319;28;20795;-67
2023/08/05 10:47:59;;;;;;;42.03;37.75;;;742.70;2432.00;;;;;;5091256;28;20377;-68
2023/08/05 10:50:36;;;;;;;40.20;36.25;;;742.60;2432.00;;;;;;5090816;28;20046;-68
2023/08/05 10:53:21;;;;;;;39.58;35.67;;;742.60;2432.00;;;;;;5091231;28;20111;-67
2023/08/05 10:55:49;;;;;;;39.83;35.55;;;742.70;2432.00;;;;;;5090993;28;20016;-67
2023/08/05 10:58:27;;;;;;;43.35;38.22;;;742.50;2432.00;;;;;;5090947;28;20500;-68
2023/08/05 11:01:01;;;;;;;39.20;35.47;;;742.60;2432.00;;;;;;5091156;28;20105;-68
2023/08/05 11:03:39;;;;;;;39.40;35.35;;;717.70;2432.00;;;;;;5090995;28;20020;-68
2023/08/05 11:06:05;;;;;;;39.65;35.65;;;717.50;2432.00;;;;;;5090743;28;20036;-68
2023/08/05 11:08:33;;;;;;;43.80;39.13;;;717.50;2432.00;;;;;;5091009;28;20024;-68
2023/08/05 11:11:04;;;;;;;38.28;34.22;;;717.20;2432.00;;;;;;5090911;28;20016;-68
2023/08/05 11:13:38;;;;;;;40.15;34.03;;;692.10;2432.00;;;;;;5091019;28;20062;-68
2023/08/05 11:16:12;;;;;;;33.83;30.25;;;691.70;2432.00;;;;;;5090652;28;20028;-68
2023/08/05 11:18:39;;;;;;;31.23;23.92;;;691.40;2432.00;;;;;;5090590;28;20378;-68
2023/08/05 11:21:10;;;;;;;32.17;27.42;;;666.30;2432.00;;;;;;5090397;28;20025;-66
2023/08/05 11:23:40;;;;;;;37.63;25.85;;;665.70;2432.00;;;;;;5090469;28;20028;-68
2023/08/05 11:26:07;;;;;;;27.98;24.13;;;665.60;2432.00;;;;;;5090322;28;20043;-68
2023/08/05 11:28:34;;;;;;;17.02;14.90;;;640.90;2432.00;;;;;;5090763;28;20036;-66
2023/08/05 11:31:04;;;;;;;14.88;13.27;;;640.60;2432.00;;;;;;5090542;28;20143;-66
2023/08/05 11:33:30;;;;;;;10.90;8.40;;;640.60;2432.00;;;;;;5090353;28;20028;-67
2023/08/05 11:35:56;;;;;;;9.50;8.07;;;640.40;2432.00;;;;;;5090273;28;20082;-66
2023/08/05 11:38:23;;;;;;;9.15;6.47;;;640.40;2432.00;;;;;;5090439;28;20493;-67
2023/08/05 11:40:52;;;;;;;7.85;6.85;;;640.60;2432.00;;;;;;5089583;28;20055;-67
2023/08/05 11:43:20;;;;;;;8.65;6.85;;;640.90;2432.00;;;;;;5090346;28;20066;-67
2023/08/05 11:45:47;;;;;;;8.25;5.28;;;640.80;2432.00;;;;;;5089291;28;20036;-67
2023/08/05 11:48:23;;;;;;;8.65;5.63;;;665.70;2432.00;;;;;;5089581;28;20054;-65
2023/08/05 11:50:51;;;;;;;7.70;5.07;;;665.60;2432.00;;;;;;5090007;28;20032;-66
2023/08/05 11:53:17;;;;;;;11.88;6.20;;;640.90;2432.00;;;;;;5089932;28;20111;-67
2023/08/05 11:55:44;;;;;;;7.20;4.07;;;640.70;2432.00;;;;;;5090151;28;20031;-67
2023/08/05 11:58:13;;;;;;;7.10;3.45;;;640.60;2432.00;;;;;;5089991;28;20099;-68
2023/08/05 12:00:44;;;;;;;6.20;3.55;;;640.50;2432.00;;;;;;5089752;28;20390;-67